Skip to main content.

Nearby METAR Reports

 

KJYR - York, Nebraska, USA
Distance from station: NW 27mi, 43km
Updated: Sat, 11-Jul-2020 8:55pm CDT
Clear
Clear
 Wind from calm
Wind: Calm
Temperature: 73°F , 23°C
Dew Point: 72°F , 22°C
Humidity: 94%
Barometer: 30.03 inHg , 1016.9 hPa
Clouds: Clear
Visibility: 10 miles , 16 km
2020/07/12 01:55 KJYR 120155Z AUTO 00000KT 10SM CLR 23/22 A3003 RMK AO2
KLNK - Lincoln, Nebraska, USA
Distance from station: ENE 27mi, 44km
Updated: Sat, 11-Jul-2020 8:54pm CDT
Clear
Clear
 Wind from N
Wind: N 8 mph , 13 km/h
Temperature: 79°F , 26°C
Dew Point: 61°F , 16°C
Humidity: 54%
Barometer: 30.00 inHg , 1015.9 hPa
Clouds: Clear
Visibility: 10 miles , 16 km
2020/07/12 01:54 KLNK 120154Z 35007KT 10SM CLR 26/16 A3000 RMK AO2 SLP147 T02610156
 
KBIE - Beatrice Municip, Nebraska, USA
Distance from station: SE 36mi, 58km
Updated: Sat, 11-Jul-2020 9:15pm CDT
Clear
Clear
 Wind from N
Wind: N 9 mph , 15 km/h
Temperature: 77°F , 25°C
Dew Point: 70°F , 21°C
Humidity: 79%
Barometer: 29.98 inHg , 1015.2 hPa
Clouds: Clear
Visibility: 10 miles , 16 km
2020/07/12 02:15 KBIE 120215Z AUTO 35008KT 10SM CLR 25/21 A2998 RMK AO2 T02460207
KHJH - Hebron Muni, Nebraska, USA
Distance from station: SSW 40mi, 64km
Updated: Sat, 11-Jul-2020 8:55pm CDT
Clear
Clear
 Wind from NNW
Wind: NNW 6 mph , 9 km/h
Temperature: 79°F , 26°C
Dew Point: 70°F , 21°C
Humidity: 74%
Barometer: 30.01 inHg , 1016.3 hPa
Clouds: Clear
Visibility: 10 miles , 16 km
2020/07/12 01:55 KHJH 120155Z AUTO 34005KT 10SM CLR 26/21 A3001 RMK AO2 T02570211
 
KAUH - Aurora, Nebraska, USA
Distance from station: WNW 44mi, 70km
Updated: Sat, 11-Jul-2020 8:55pm CDT
Clear
Clear
 Wind from calm
Wind: Calm
Temperature: 75°F , 24°C
Dew Point: 70°F , 21°C
Humidity: 83%
Barometer: 30.05 inHg , 1017.6 hPa
Clouds: Clear
Visibility: 10 miles , 16 km
2020/07/12 01:55 KAUH 120155Z AUTO 00000KT 10SM CLR 24/21 A3005 RMK AO2 T02360205
KAHQ - Wahoo, Nebraska, USA
Distance from station: NE 51mi, 82km
Updated: Sat, 11-Jul-2020 8:55pm CDT
Clear
Clear
 Wind from NNW
Wind: NNW 5 mph , 7 km/h
Temperature: 73°F , 23°C
Dew Point: 63°F , 17°C
Humidity: 69%
Barometer: 30.00 inHg , 1015.9 hPa
Clouds: Clear
Visibility: 10 miles , 16 km
2020/07/12 01:55 KAHQ 120155Z AUTO 34004KT 10SM CLR 23/17 A3000 RMK AO2 T02270172
 
KOLU - Columbus Muni, Nebraska, USA
Distance from station: N 55mi, 88km
Updated: Sat, 11-Jul-2020 8:56pm CDT
Clear
Clear
 Wind from WNW
Wind: WNW 3 mph , 6 km/h
Temperature: 73°F , 23°C
Dew Point: 63°F , 17°C
Humidity: 69%
Barometer: 30.03 inHg , 1016.9 hPa
Clouds: Clear
Visibility: 10 miles , 16 km
2020/07/12 01:56 KOLU 120156Z AUTO 30003KT 10SM CLR 23/17 A3003 RMK AO2 SLP160 T02280172
KGRI - Grand Island, Nebraska, USA
Distance from station: WNW 61mi, 99km
Updated: Sat, 11-Jul-2020 8:53pm CDT
Clear
Clear
 Wind from NNE
Wind: NNE 5 mph , 7 km/h
Temperature: 75°F , 24°C
Dew Point: 66°F , 19°C
Humidity: 74%
Barometer: 30.06 inHg , 1017.9 hPa
Clouds: Clear
Visibility: 10 miles , 16 km
2020/07/12 01:53 KGRI 120153Z AUTO 02004KT 10SM CLR 24/19 A3006 RMK AO2 SLP167 T02390189
 
KHSI - Hastings, Nebraska, USA
Distance from station: W 64mi, 103km
Updated: Sat, 11-Jul-2020 8:53pm CDT
Clear
Clear
 Wind from NE
Wind: NE 5 mph , 7 km/h
Temperature: 73°F , 23°C
Dew Point: 63°F , 17°C
Humidity: 69%
Barometer: 30.06 inHg , 1017.9 hPa
Clouds: Clear
Visibility: 10 miles , 16 km
2020/07/12 01:53 KHSI 120153Z AUTO 04004KT 10SM CLR 23/17 A3006 RMK AO2 SLP163 T02330172
KFET - Fremont Muni Arp, Nebraska, USA
Distance from station: NNE 66mi, 106km
Updated: Sat, 11-Jul-2020 9:15pm CDT
Clear
Clear
 Wind from calm
Wind: Calm
Temperature: 73°F , 23°C
Dew Point: 64°F , 18°C
Humidity: 74%
Barometer: 30.00 inHg , 1015.9 hPa
Clouds: Clear
Visibility: 10 miles , 16 km
2020/07/12 02:15 KFET 120215Z AUTO 00000KT 10SM CLR 23/18 A3000 RMK AO2 T02250175
 
KMLE - Omaha/Millard, Nebraska, USA
Distance from station: NE 69mi, 110km
Updated: Sat, 11-Jul-2020 8:55pm CDT
Clear
Clear
 Wind from N
Wind: N 5 mph , 7 km/h
Temperature: 81°F , 27°C
Heat Index: 81°F , 27°C
Dew Point: 57°F , 14°C
Humidity: 45%
Barometer: 29.98 inHg , 1015.2 hPa
Clouds: Clear
Visibility: 10 miles , 16 km
2020/07/12 01:55 KMLE 120155Z AUTO 36004KT 10SM CLR 27/14 A2998 RMK AO2 T02740137
KPMV - Plattsmouth Muni, Nebraska, USA
Distance from station: ENE 71mi, 114km
Updated: Sat, 11-Jul-2020 9:15pm CDT
Clear
Clear
 Wind from NNW
Wind: NNW 7 mph , 11 km/h
Temperature: 75°F , 24°C
Dew Point: 57°F , 14°C
Humidity: 54%
Barometer: 29.98 inHg , 1015.2 hPa
Clouds: Clear
Visibility: 10 miles , 16 km
2020/07/12 02:15 KPMV 120215Z AUTO 34006KT 10SM CLR 24/14 A2998 RMK AO2 T02390138
 
KAFK - Nebraska City, Nebraska, USA
Distance from station: E 72mi, 116km
Updated: Sat, 11-Jul-2020 9:15pm CDT
Clear
Clear
 Wind from N
Wind: N 9 mph , 15 km/h
Temperature: 77°F , 25°C
Dew Point: 59°F , 15°C
Humidity: 54%
Barometer: 29.98 inHg , 1015.2 hPa
Clouds: Clear
Visibility: 10 miles , 16 km
2020/07/12 02:15 KAFK 120215Z AUTO 35008KT 10SM CLR 25/15 A2998 RMK AO2 T02460151
KOFF - Offutt Afb/Belle, Nebraska, USA
Distance from station: ENE 75mi, 121km
Updated: Sat, 11-Jul-2020 8:56pm CDT
Clear
Clear
 Wind from N
Wind: N 7 mph , 11 km/h
Temperature: 79°F , 26°C
Dew Point: 57°F , 14°C
Humidity: 48%
Barometer: 29.97 inHg , 1014.9 hPa
Clouds: Clear
Visibility: 10 miles , 16 km
2020/07/12 01:56 KOFF 120156Z AUTO 36006KT 10SM CLR 26/14 A2997 RMK AO2 SLP145 T02620140 $
 
KBTA - Blair Muni, Nebraska, USA
Distance from station: NE 78mi, 125km
Updated: Sat, 11-Jul-2020 9:15pm CDT
Clear
Clear
 Wind from NNW
Wind: NNW 7 mph , 11 km/h
Temperature: 73°F , 23°C
Dew Point: 57°F , 14°C
Humidity: 57%
Barometer: 29.99 inHg , 1015.6 hPa
Clouds: Clear
Visibility: 10 miles , 16 km
2020/07/12 02:15 KBTA 120215Z AUTO 34006KT 10SM CLR 23/14 A2999 RMK AO2 T02330141
KCNK - Concordia, Kansas, USA
Distance from station: SSW 80mi, 129km
Updated: Sat, 11-Jul-2020 8:55pm CDT
Clear
Clear
 
Temperature: 82°F , 28°C
Heat Index: 86°F , 30°C
Dew Point: 72°F , 22°C
Humidity: 70%
Barometer: 29.98 inHg , 1015.2 hPa
Clouds: Clear
Visibility: 10 miles , 16 km
2020/07/12 01:55 KCNK 120155Z AUTO 10SM CLR 28/22 A2998 RMK AO2 SLP134 T02780217
 
KOMA - Omaha/Eppley, Nebraska, USA
Distance from station: NE 82mi, 133km
Updated: Sat, 11-Jul-2020 8:52pm CDT
Few Clouds
Few Clouds
 Wind from N
Wind: N 3 mph , 6 km/h
Temperature: 73°F , 23°C
Dew Point: 61°F , 16°C
Humidity: 65%
Barometer: 29.97 inHg , 1014.9 hPa
Clouds: Few Clouds
Visibility: 10 miles , 16 km
Cloud details: Few Clouds 4000 ft
Few Clouds 20000 ft
2020/07/12 01:52 KOMA 120152Z 35003KT 10SM FEW040 FEW200 23/16 A2997 RMK AO2 SLP140 CB DSNT E MOV SE T02330161
KBVN - Albion Muni, Nebraska, USA
Distance from station: NNW 86mi, 138km
Updated: Sat, 11-Jul-2020 9:15pm CDT
Clear
Clear
 Wind from calm
Wind: Calm
Temperature: 70°F , 21°C
Dew Point: 66°F , 19°C
Humidity: 88%
Barometer: 30.04 inHg , 1017.3 hPa
Clouds: Clear
Visibility: 10 miles , 16 km
2020/07/12 02:15 KBVN 120215Z AUTO 00000KT 10SM CLR 21/19 A3004 RMK AO2 T02080190
 
KCBF - Council Bluffs, Iowa, USA
Distance from station: ENE 87mi, 139km
Updated: Sat, 11-Jul-2020 9:15pm CDT
Clear
Clear
 Wind from NNW
Wind: NNW 6 mph , 9 km/h
Temperature: 72°F , 22°C
Dew Point: 57°F , 14°C
Humidity: 61%
Barometer: 29.97 inHg , 1014.9 hPa
Clouds: Clear
Visibility: 10 miles , 16 km
2020/07/12 02:15 KCBF 120215Z AUTO 34005KT 10SM CLR 22/14 A2997 RMK AO2
KOFK - Norfolk, Nebraska, USA
Distance from station: N 92mi, 148km
Updated: Sat, 11-Jul-2020 8:56pm CDT
Clear
Clear
 Wind from W
Wind: W 5 mph , 7 km/h
Temperature: 75°F , 24°C
Dew Point: 61°F , 16°C
Humidity: 61%
Barometer: 30.00 inHg , 1015.9 hPa
Clouds: Clear
Visibility: 10 miles , 16 km
2020/07/12 01:56 KOFK 120156Z AUTO 27004KT 10SM CLR 24/16 A3000 RMK AO2 SLP148 T02390156

Metar display script from Saratoga-Weather.org